createdAt,value
2024-01-31T00:03:28.089Z,6.17
2024-01-31T00:08:34.282Z,5.87
2024-01-31T00:13:39.437Z,7.60
2024-01-31T00:18:42.951Z,7.53
2024-01-31T00:23:46.732Z,7.50
2024-01-31T00:28:52.410Z,6.97
2024-01-31T00:33:56.024Z,7.63
2024-01-31T00:39:00.800Z,7.83
2024-01-31T00:44:05.584Z,7.33
2024-01-31T00:49:09.899Z,7.70
2024-01-31T00:54:14.120Z,7.47
2024-01-31T00:59:18.829Z,8.77
2024-01-31T01:04:23.189Z,9.60
2024-01-31T01:09:26.819Z,9.20
2024-01-31T01:14:31.556Z,9.53
2024-01-31T01:19:34.992Z,10.13
2024-01-31T01:24:39.070Z,10.13
2024-01-31T01:29:43.837Z,10.60
2024-01-31T01:34:48.274Z,10.60
2024-01-31T01:39:51.564Z,11.00
2024-01-31T01:44:57.034Z,10.90
2024-01-31T01:50:00.693Z,10.17
2024-01-31T01:55:05.081Z,10.03
2024-01-31T02:00:12.348Z,9.97
2024-01-31T02:05:16.690Z,11.53
2024-01-31T02:10:21.031Z,12.13
2024-01-31T02:15:25.963Z,11.53
2024-01-31T02:20:29.374Z,11.20
2024-01-31T02:25:34.521Z,12.40
2024-01-31T02:30:37.829Z,12.07
2024-01-31T02:35:41.307Z,14.27
2024-01-31T02:40:46.300Z,14.53
2024-01-31T02:45:50.749Z,16.40
2024-01-31T02:50:55.136Z,14.97
2024-01-31T02:55:59.875Z,11.33
2024-01-31T03:01:03.206Z,11.13
2024-01-31T03:06:07.516Z,11.17
2024-01-31T03:11:12.559Z,10.43
2024-01-31T03:16:15.924Z,12.50
2024-01-31T03:21:19.717Z,11.10
2024-01-31T03:26:24.353Z,12.17
2024-01-31T03:31:28.459Z,11.47
2024-01-31T03:36:31.971Z,11.13
2024-01-31T03:41:36.721Z,10.77
2024-01-31T03:46:40.132Z,12.13
2024-01-31T03:51:44.297Z,12.20
2024-01-31T03:56:49.330Z,11.90
2024-01-31T04:01:53.617Z,12.53
2024-01-31T04:06:57.231Z,12.37
2024-01-31T04:12:01.937Z,13.40
2024-01-31T04:17:05.287Z,11.80
2024-01-31T04:22:08.766Z,12.07
2024-01-31T04:27:15.202Z,12.53
2024-01-31T04:32:18.560Z,13.07
2024-01-31T04:37:21.939Z,11.80
2024-01-31T04:42:26.722Z,12.07
2024-01-31T04:47:30.042Z,11.80
2024-01-31T04:52:33.463Z,12.63
2024-01-31T04:57:38.514Z,11.50
2024-01-31T05:02:41.962Z,11.00
2024-01-31T05:07:45.339Z,9.83
2024-01-31T05:12:50.262Z,10.23
2024-01-31T05:17:54.619Z,9.33
2024-01-31T05:22:58.293Z,7.17
2024-01-31T05:28:02.994Z,6.47
2024-01-31T05:33:07.590Z,6.63
2024-01-31T05:38:10.906Z,7.07
2024-01-31T05:43:15.666Z,7.30
2024-01-31T05:48:18.977Z,8.07
2024-01-31T05:53:22.278Z,8.13
2024-01-31T05:58:26.995Z,8.10
2024-01-31T06:03:30.345Z,8.57
2024-01-31T06:08:34.489Z,8.77
2024-01-31T06:13:40.499Z,8.50
2024-01-31T06:18:44.334Z,9.20
2024-01-31T06:23:47.837Z,8.77
2024-01-31T06:28:53.359Z,9.37
2024-01-31T06:33:56.709Z,9.97
2024-01-31T06:39:00.780Z,10.70
2024-01-31T06:44:06.496Z,10.03
2024-01-31T06:49:09.954Z,9.97
2024-01-31T06:54:15.873Z,9.80
2024-01-31T06:59:22.204Z,10.53
2024-01-31T07:04:25.726Z,9.37
2024-01-31T07:09:30.666Z,10.70
2024-01-31T07:14:39.134Z,10.73
2024-01-31T07:19:43.761Z,10.57
2024-01-31T07:24:47.079Z,10.23
2024-01-31T07:29:51.814Z,12.03
2024-01-31T07:34:55.986Z,11.97
2024-01-31T07:39:59.770Z,12.03
2024-01-31T07:45:06.090Z,12.83
2024-01-31T07:50:09.787Z,12.27
2024-01-31T07:55:14.724Z,12.50
2024-01-31T08:00:20.592Z,12.03
2024-01-31T08:05:24.059Z,12.80
2024-01-31T08:10:27.241Z,10.97
2024-01-31T08:15:34.232Z,13.13
2024-01-31T08:20:37.837Z,13.33
2024-01-31T08:25:41.232Z,12.30
2024-01-31T08:30:48.221Z,12.33
2024-01-31T08:35:51.629Z,12.10
2024-01-31T08:40:55.871Z,14.13
2024-01-31T08:46:04.476Z,12.33
2024-01-31T08:51:09.002Z,13.60
2024-01-31T08:56:13.616Z,9.43
2024-01-31T09:01:19.042Z,10.50
2024-01-31T09:06:22.471Z,13.00
2024-01-31T09:11:26.625Z,14.20
2024-01-31T09:16:32.261Z,13.93
2024-01-31T09:21:36.552Z,11.37
2024-01-31T09:26:39.867Z,11.33
2024-01-31T09:31:45.507Z,12.23
2024-01-31T09:36:49.451Z,11.93
2024-01-31T09:41:54.177Z,12.43
2024-01-31T09:47:00.412Z,11.97
2024-01-31T09:52:05.306Z,11.73
2024-01-31T09:57:08.851Z,14.33
2024-01-31T10:02:15.761Z,10.43
2024-01-31T10:07:23.979Z,12.13
2024-01-31T10:12:29.324Z,14.07
2024-01-31T10:17:35.519Z,12.53
2024-01-31T10:22:40.078Z,13.07
2024-01-31T10:27:43.376Z,11.27
2024-01-31T10:32:48.475Z,11.07
2024-01-31T10:37:56.688Z,11.90
2024-01-31T10:43:04.015Z,11.10
2024-01-31T10:48:09.276Z,11.90
2024-01-31T10:53:13.934Z,12.37
2024-01-31T10:58:18.809Z,12.00
2024-01-31T11:03:24.391Z,12.47
2024-01-31T11:08:28.325Z,12.40
2024-01-31T11:13:32.250Z,11.30
2024-01-31T11:18:39.354Z,12.30
2024-01-31T11:23:42.697Z,11.90
2024-01-31T11:28:47.381Z,11.63
2024-01-31T11:33:57.398Z,11.00
2024-01-31T11:39:00.923Z,11.80
2024-01-31T11:44:05.237Z,12.10
2024-01-31T11:49:10.864Z,11.87
2024-01-31T11:54:15.180Z,11.70
2024-01-31T11:59:18.515Z,13.50
2024-01-31T12:04:25.685Z,11.23
2024-01-31T12:09:29.020Z,11.90
2024-01-31T12:14:33.237Z,13.20
2024-01-31T12:19:37.964Z,10.80
2024-01-31T12:24:42.115Z,10.90
2024-01-31T12:29:47.706Z,13.23
2024-01-31T12:34:52.548Z,11.30
2024-01-31T12:39:56.631Z,11.40
2024-01-31T12:45:00.274Z,11.47
2024-01-31T12:50:05.216Z,10.43
2024-01-31T12:55:08.861Z,8.97
2024-01-31T13:00:13.437Z,13.93
2024-01-31T13:05:18.815Z,11.03
2024-01-31T13:10:22.516Z,10.03
2024-01-31T13:15:26.769Z,9.60
2024-01-31T13:20:31.561Z,10.53
2024-01-31T13:25:35.783Z,9.57
2024-01-31T13:30:39.953Z,9.63
2024-01-31T13:35:45.486Z,12.53
2024-01-31T13:40:48.802Z,9.80
2024-01-31T13:45:52.907Z,10.20
2024-01-31T13:50:58.426Z,8.60
2024-01-31T13:56:01.745Z,9.20
2024-01-31T14:01:06.141Z,7.07
2024-01-31T14:06:11.255Z,8.67
2024-01-31T14:11:19.139Z,8.20
2024-01-31T14:16:22.490Z,8.23
2024-01-31T14:21:27.740Z,9.17
2024-01-31T14:26:31.549Z,8.20
2024-01-31T14:31:34.926Z,9.27
2024-01-31T14:36:41.941Z,8.40
2024-01-31T14:41:46.597Z,8.33
2024-01-31T14:46:51.127Z,7.93
2024-01-31T14:51:56.441Z,8.17
2024-01-31T14:57:02.359Z,8.00
2024-01-31T15:02:07.556Z,8.00
2024-01-31T15:07:12.389Z,7.70
2024-01-31T15:12:15.721Z,9.17
2024-01-31T15:17:19.083Z,8.43
2024-01-31T15:22:24.596Z,8.13
2024-01-31T15:27:27.928Z,8.20
2024-01-31T15:32:31.438Z,8.37
2024-01-31T15:37:36.752Z,8.40
2024-01-31T15:42:41.130Z,7.80
2024-01-31T15:47:45.218Z,7.90
2024-01-31T15:52:49.937Z,8.20
2024-01-31T15:57:53.235Z,8.60
2024-01-31T16:02:57.581Z,8.90
2024-01-31T16:08:02.735Z,7.87
2024-01-31T16:13:32.707Z,8.20
2024-01-31T16:18:37.849Z,7.57
2024-01-31T16:23:42.752Z,7.70
2024-01-31T16:28:47.024Z,8.10
2024-01-31T16:33:50.444Z,7.43
2024-01-31T16:38:55.206Z,7.40
2024-01-31T16:43:59.417Z,7.70
2024-01-31T16:49:02.995Z,7.53
2024-01-31T16:54:09.505Z,7.43
2024-01-31T16:59:12.855Z,8.47
2024-01-31T17:04:17.490Z,8.47
2024-01-31T17:09:23.259Z,8.77
2024-01-31T17:14:33.164Z,9.47
2024-01-31T17:19:44.474Z,9.87
2024-01-31T17:24:49.156Z,12.77
2024-01-31T17:29:53.327Z,11.43
2024-01-31T17:34:56.692Z,11.00
2024-01-31T17:40:01.449Z,10.70
2024-01-31T17:45:05.921Z,10.80
2024-01-31T17:50:10.546Z,10.50
2024-01-31T17:55:15.353Z,9.77
2024-01-31T18:00:20.327Z,10.77
2024-01-31T18:05:25.485Z,9.10
2024-01-31T18:10:30.802Z,10.63
2024-01-31T18:15:34.236Z,9.27
2024-01-31T18:20:39.674Z,10.30
2024-01-31T18:25:45.275Z,13.30
2024-01-31T18:30:49.718Z,11.87
2024-01-31T18:35:53.118Z,11.20
2024-01-31T18:40:58.703Z,10.53
2024-01-31T18:46:03.266Z,9.80
2024-01-31T18:51:07.470Z,8.93
2024-01-31T18:56:15.095Z,10.50
2024-01-31T19:01:19.212Z,10.43
2024-01-31T19:06:23.237Z,9.70
2024-01-31T19:11:28.095Z,7.90
2024-01-31T19:16:32.265Z,7.90
2024-01-31T19:21:35.635Z,8.63
2024-01-31T19:26:40.339Z,8.40
2024-01-31T19:31:43.760Z,8.13
2024-01-31T19:36:48.534Z,8.13
2024-01-31T19:41:53.308Z,11.27
2024-01-31T19:46:57.020Z,9.47
2024-01-31T19:52:00.342Z,10.13
2024-01-31T19:57:05.919Z,8.80
2024-01-31T20:02:09.638Z,9.57
2024-01-31T20:07:13.935Z,10.07
2024-01-31T20:12:19.023Z,14.90
2024-01-31T20:17:22.540Z,20.37
2024-01-31T20:22:26.075Z,27.20
2024-01-31T20:27:33.465Z,9.73
2024-01-31T20:32:37.573Z,10.53
2024-01-31T20:37:43.373Z,11.03
2024-01-31T20:42:48.498Z,10.20
2024-01-31T20:47:52.297Z,8.57
2024-01-31T20:52:55.665Z,9.00
2024-01-31T20:58:00.499Z,6.93
2024-01-31T21:03:04.660Z,7.67
2024-01-31T21:08:08.859Z,8.00
2024-01-31T21:13:17.620Z,8.07
2024-01-31T21:18:21.154Z,8.90
2024-01-31T21:23:26.158Z,7.43
2024-01-31T21:28:32.056Z,7.37
2024-01-31T21:33:35.949Z,7.30
2024-01-31T21:38:39.921Z,8.67
2024-01-31T21:43:44.686Z,7.80
2024-01-31T21:48:48.213Z,6.90
2024-01-31T21:53:52.388Z,6.40
2024-01-31T21:58:57.365Z,6.73
2024-01-31T22:04:02.627Z,6.00
2024-01-31T22:09:08.436Z,5.10
2024-01-31T22:14:13.107Z,6.47
2024-01-31T22:19:17.633Z,6.77
2024-01-31T22:24:21.658Z,6.00
2024-01-31T22:29:27.278Z,5.23
2024-01-31T22:34:31.033Z,5.40
2024-01-31T22:39:34.623Z,5.50
2024-01-31T22:44:39.742Z,5.83
2024-01-31T22:49:44.087Z,6.10
2024-01-31T22:54:54.169Z,5.50
2024-01-31T23:00:09.368Z,5.87
2024-01-31T23:05:13.233Z,6.03
2024-01-31T23:10:16.640Z,6.70
2024-01-31T23:15:22.032Z,7.00
2024-01-31T23:20:25.446Z,6.10
2024-01-31T23:25:29.835Z,5.70
2024-01-31T23:30:34.776Z,5.70
2024-01-31T23:35:38.957Z,6.10
2024-01-31T23:40:42.302Z,5.37
2024-01-31T23:45:46.993Z,5.17
2024-01-31T23:50:50.379Z,5.03
2024-01-31T23:55:54.025Z,5.47
